Arctic Fury — WDE9335 — position and weather

sailwx.info

Track history (hours):
 
Tides and Currents Weather Stations Pressure Air Temp Water Temp Dewpoint Dewpoint Depression Visibility Wind Speed Wind Dir Waves Ship Positions

Arctic Fury

Owner: Fury Group Inc, Seattle, WA. More information available from US FCC via Universal Licensing System and Coast Guard Vessel Documentation Center.

Last reported at 2018-Feb-05 20:21 UTC. Time now 2018-Feb-22 04:52 UTC.
Position N 48°02' W 122°11'.
Warning: this ship's position is 16 days out of date.

Length 43 m; draft 5 m.

Type: Fishing. MMSI: 366468000.

Date/timePositionNaut miles runAvg speedWind from/ knotsBaromVisibWave heightAir tempDewpointWater temp
2018-Feb-05 20:21N 48°02' W 122°11'0 0.0
2018-Feb-05 20:00N 48°02' W 122°11'0 0.0
2018-Feb-05 19:26N 48°02' W 122°11'0 0.0
2018-Feb-05 18:58N 48°02' W 122°11'0 0.0
2018-Feb-05 16:00N 48°02' W 122°11'2 3.8
2018-Feb-05 15:30N 48°02' W 122°14'2 4.0
2018-Feb-05 14:59N 48°02' W 122°17'1 2.4
2018-Feb-05 14:27N 48°00' W 122°17'3 3.1
2018-Feb-05 13:30N 47°58' W 122°19'5 9.4
2018-Feb-05 13:00N 47°53' W 122°22'1010.0
2018-Feb-05 12:00N 47°44' W 122°25'4 4.2
2018-Feb-05 11:00N 47°40' W 122°23'0 0.3
2018-Feb-05 10:30N 47°40' W 122°23'0 0.0
2018-Feb-05 09:54N 47°40' W 122°23'0 0.0
2018-Feb-05 09:30N 47°40' W 122°23'0 0.0
2018-Feb-05 08:59N 47°40' W 122°23'0 0.0
2018-Feb-05 08:30N 47°40' W 122°23'0 0.0
2018-Feb-05 07:59N 47°40' W 122°23'0 0.0
2018-Feb-05 07:30N 47°40' W 122°23'0 0.0
2018-Feb-05 06:59N 47°40' W 122°23'0 0.0
2018-Feb-05 06:30N 47°40' W 122°23'0 0.0
2018-Feb-05 05:30N 47°40' W 122°23'0 0.0
2018-Feb-05 05:00N 47°40' W 122°23'0 0.0
2018-Feb-05 04:30N 47°40' W 122°23'0 0.0
2018-Feb-05 04:00N 47°40' W 122°23'0 0.0
2018-Feb-05 03:30N 47°40' W 122°23'0 0.0
2018-Feb-05 03:00N 47°40' W 122°23'0 0.0
2018-Feb-05 02:30N 47°40' W 122°23'0 0.0
2018-Feb-05 02:00N 47°40' W 122°23'0 0.0
2018-Feb-05 01:30N 47°40' W 122°23'0 0.0
2018-Feb-05 01:00N 47°40' W 122°23'0 0.0
2018-Feb-05 00:30N 47°40' W 122°23'  
Track history (hours):
 
Tides and Currents Weather Stations Pressure Air Temp Water Temp Dewpoint Dewpoint Depression Visibility Wind Speed Wind Dir Waves Ship Positions

Arctic Fury

Owner: Fury Group Inc, Seattle, WA. More information available from US FCC via Universal Licensing System and Coast Guard Vessel Documentation Center.

Last reported at 2018-Feb-05 20:21 UTC. Time now 2018-Feb-22 04:52 UTC.
Position N 48°02' W 122°11'.
Warning: this ship's position is 16 days out of date.

Length 43 m; draft 5 m.

Type: Fishing. MMSI: 366468000.

Date/timePositionNaut miles runAvg speedWind from/ knotsBaromVisibWave heightAir tempDewpointWater temp
2018-Feb-05 20:21N 48°02' W 122°11'0 0.0
2018-Feb-05 20:00N 48°02' W 122°11'0 0.0
2018-Feb-05 19:26N 48°02' W 122°11'0 0.0
2018-Feb-05 18:58N 48°02' W 122°11'0 0.0
2018-Feb-05 16:00N 48°02' W 122°11'2 3.8
2018-Feb-05 15:30N 48°02' W 122°14'2 4.0
2018-Feb-05 14:59N 48°02' W 122°17'1 2.4
2018-Feb-05 14:27N 48°00' W 122°17'3 3.1
2018-Feb-05 13:30N 47°58' W 122°19'5 9.4
2018-Feb-05 13:00N 47°53' W 122°22'1010.0
2018-Feb-05 12:00N 47°44' W 122°25'4 4.2
2018-Feb-05 11:00N 47°40' W 122°23'0 0.3
2018-Feb-05 10:30N 47°40' W 122°23'0 0.0
2018-Feb-05 09:54N 47°40' W 122°23'0 0.0
2018-Feb-05 09:30N 47°40' W 122°23'0 0.0
2018-Feb-05 08:59N 47°40' W 122°23'0 0.0
2018-Feb-05 08:30N 47°40' W 122°23'0 0.0
2018-Feb-05 07:59N 47°40' W 122°23'0 0.0
2018-Feb-05 07:30N 47°40' W 122°23'0 0.0
2018-Feb-05 06:59N 47°40' W 122°23'0 0.0
2018-Feb-05 06:30N 47°40' W 122°23'0 0.0
2018-Feb-05 05:30N 47°40' W 122°23'0 0.0
2018-Feb-05 05:00N 47°40' W 122°23'0 0.0
2018-Feb-05 04:30N 47°40' W 122°23'0 0.0
2018-Feb-05 04:00N 47°40' W 122°23'0 0.0
2018-Feb-05 03:30N 47°40' W 122°23'0 0.0
2018-Feb-05 03:00N 47°40' W 122°23'0 0.0
2018-Feb-05 02:30N 47°40' W 122°23'0 0.0
2018-Feb-05 02:00N 47°40' W 122°23'0 0.0
2018-Feb-05 01:30N 47°40' W 122°23'0 0.0
2018-Feb-05 01:00N 47°40' W 122°23'0 0.0
2018-Feb-05 00:30N 47°40' W 122°23'  

Dump ship's entire track history